sensor_id;sensor_type;location;lat;lon;timestamp;temperature;humidity
5419;DHT22;2732;52.092;11.556;2023-01-25T00:04:40;1.10;99.90
5419;DHT22;2732;52.092;11.556;2023-01-25T00:09:41;1.10;99.90
5419;DHT22;2732;52.092;11.556;2023-01-25T00:14:41;1.10;99.90
5419;DHT22;2732;52.092;11.556;2023-01-25T00:19:42;1.10;99.90
5419;DHT22;2732;52.092;11.556;2023-01-25T00:24:43;1.20;99.90
5419;DHT22;2732;52.092;11.556;2023-01-25T00:29:47;1.20;99.90
5419;DHT22;2732;52.092;11.556;2023-01-25T00:34:49;1.20;99.90
5419;DHT22;2732;52.092;11.556;2023-01-25T00:39:50;1.20;99.90
5419;DHT22;2732;52.092;11.556;2023-01-25T00:44:54;1.20;99.90
5419;DHT22;2732;52.092;11.556;2023-01-25T00:49:55;1.20;99.90
5419;DHT22;2732;52.092;11.556;2023-01-25T00:54:55;1.20;99.90
5419;DHT22;2732;52.092;11.556;2023-01-25T00:59:56;1.20;99.90
5419;DHT22;2732;52.092;11.556;2023-01-25T01:04:57;1.20;99.90
5419;DHT22;2732;52.092;11.556;2023-01-25T01:09:58;1.20;99.90
5419;DHT22;2732;52.092;11.556;2023-01-25T01:14:59;1.20;99.90
5419;DHT22;2732;52.092;11.556;2023-01-25T01:20:00;1.20;99.90
5419;DHT22;2732;52.092;11.556;2023-01-25T01:25:04;1.20;99.90
5419;DHT22;2732;52.092;11.556;2023-01-25T01:30:05;1.20;99.90
5419;DHT22;2732;52.092;11.556;2023-01-25T01:35:07;1.20;99.90
5419;DHT22;2732;52.092;11.556;2023-01-25T01:40:12;1.20;99.90
5419;DHT22;2732;52.092;11.556;2023-01-25T01:50:43;1.20;99.90
5419;DHT22;2732;52.092;11.556;2023-01-25T01:55:43;1.20;99.90
5419;DHT22;2732;52.092;11.556;2023-01-25T02:00:44;1.20;99.90
5419;DHT22;2732;52.092;11.556;2023-01-25T02:05:51;1.20;99.90
5419;DHT22;2732;52.092;11.556;2023-01-25T02:11:01;1.20;99.90
5419;DHT22;2732;52.092;11.556;2023-01-25T02:16:03;1.20;99.90
5419;DHT22;2732;52.092;11.556;2023-01-25T02:21:05;1.20;99.90
5419;DHT22;2732;52.092;11.556;2023-01-25T02:26:06;1.20;99.90
5419;DHT22;2732;52.092;11.556;2023-01-25T02:31:06;1.20;99.90
5419;DHT22;2732;52.092;11.556;2023-01-25T02:41:24;1.30;99.90
5419;DHT22;2732;52.092;11.556;2023-01-25T02:46:29;1.30;99.90
5419;DHT22;2732;52.092;11.556;2023-01-25T02:51:35;1.30;99.90
5419;DHT22;2732;52.092;11.556;2023-01-25T02:56:37;1.30;99.90
5419;DHT22;2732;52.092;11.556;2023-01-25T03:01:41;1.30;99.90
5419;DHT22;2732;52.092;11.556;2023-01-25T03:06:42;1.30;99.90
5419;DHT22;2732;52.092;11.556;2023-01-25T03:11:43;1.30;99.90
5419;DHT22;2732;52.092;11.556;2023-01-25T03:16:44;1.30;99.90
5419;DHT22;2732;52.092;11.556;2023-01-25T03:21:44;1.30;99.90
5419;DHT22;2732;52.092;11.556;2023-01-25T03:26:46;1.30;99.90
5419;DHT22;2732;52.092;11.556;2023-01-25T03:32:05;1.30;99.90
5419;DHT22;2732;52.092;11.556;2023-01-25T03:37:06;1.40;99.90
5419;DHT22;2732;52.092;11.556;2023-01-25T03:42:06;1.40;99.90
5419;DHT22;2732;52.092;11.556;2023-01-25T03:47:07;1.40;99.90
5419;DHT22;2732;52.092;11.556;2023-01-25T03:52:08;1.40;99.90
5419;DHT22;2732;52.092;11.556;2023-01-25T03:57:08;1.40;99.90
5419;DHT22;2732;52.092;11.556;2023-01-25T04:02:09;1.40;99.90
5419;DHT22;2732;52.092;11.556;2023-01-25T04:07:12;1.40;99.90
5419;DHT22;2732;52.092;11.556;2023-01-25T04:12:12;1.40;99.90
5419;DHT22;2732;52.092;11.556;2023-01-25T04:17:13;1.40;99.90
5419;DHT22;2732;52.092;11.556;2023-01-25T04:22:14;1.40;99.90
5419;DHT22;2732;52.092;11.556;2023-01-25T04:27:15;1.40;99.90
5419;DHT22;2732;52.092;11.556;2023-01-25T04:32:16;1.40;99.90
5419;DHT22;2732;52.092;11.556;2023-01-25T04:37:16;1.40;99.90
5419;DHT22;2732;52.092;11.556;2023-01-25T04:42:17;1.40;99.90
5419;DHT22;2732;52.092;11.556;2023-01-25T04:47:17;1.40;99.90
5419;DHT22;2732;52.092;11.556;2023-01-25T04:52:18;1.40;99.90
5419;DHT22;2732;52.092;11.556;2023-01-25T04:57:19;1.40;99.90
5419;DHT22;2732;52.092;11.556;2023-01-25T05:02:19;1.40;99.90
5419;DHT22;2732;52.092;11.556;2023-01-25T05:07:20;1.40;99.90
5419;DHT22;2732;52.092;11.556;2023-01-25T05:12:21;1.40;99.90
5419;DHT22;2732;52.092;11.556;2023-01-25T05:17:22;1.40;99.90
5419;DHT22;2732;52.092;11.556;2023-01-25T05:22:22;1.40;99.90
5419;DHT22;2732;52.092;11.556;2023-01-25T05:27:23;1.40;99.90
5419;DHT22;2732;52.092;11.556;2023-01-25T05:32:24;1.40;99.90
5419;DHT22;2732;52.092;11.556;2023-01-25T05:37:25;1.40;99.90
5419;DHT22;2732;52.092;11.556;2023-01-25T05:42:25;1.40;99.90
5419;DHT22;2732;52.092;11.556;2023-01-25T05:47:26;1.40;99.90
5419;DHT22;2732;52.092;11.556;2023-01-25T05:52:27;1.40;99.90
5419;DHT22;2732;52.092;11.556;2023-01-25T05:57:27;1.40;99.90
5419;DHT22;2732;52.092;11.556;2023-01-25T06:02:28;1.30;99.90
5419;DHT22;2732;52.092;11.556;2023-01-25T06:07:32;1.30;99.90
5419;DHT22;2732;52.092;11.556;2023-01-25T06:12:35;1.30;99.90
5419;DHT22;2732;52.092;11.556;2023-01-25T06:17:36;1.30;99.90
5419;DHT22;2732;52.092;11.556;2023-01-25T06:22:36;1.30;99.90
5419;DHT22;2732;52.092;11.556;2023-01-25T06:27:37;1.30;99.90
5419;DHT22;2732;52.092;11.556;2023-01-25T06:32:39;1.30;99.90
5419;DHT22;2732;52.092;11.556;2023-01-25T06:37:41;1.30;99.90
5419;DHT22;2732;52.092;11.556;2023-01-25T06:42:41;1.30;99.90
5419;DHT22;2732;52.092;11.556;2023-01-25T06:47:42;1.30;99.90
5419;DHT22;2732;52.092;11.556;2023-01-25T06:52:51;1.30;99.90
5419;DHT22;2732;52.092;11.556;2023-01-25T06:57:52;1.30;99.90
5419;DHT22;2732;52.092;11.556;2023-01-25T07:02:53;1.30;99.90
5419;DHT22;2732;52.092;11.556;2023-01-25T07:07:53;1.30;99.90
5419;DHT22;2732;52.092;11.556;2023-01-25T07:12:54;1.30;99.90
5419;DHT22;2732;52.092;11.556;2023-01-25T07:17:55;1.30;99.90
5419;DHT22;2732;52.092;11.556;2023-01-25T07:22:55;1.30;99.90
5419;DHT22;2732;52.092;11.556;2023-01-25T07:27:56;1.20;99.90
5419;DHT22;2732;52.092;11.556;2023-01-25T07:32:58;1.20;99.90
5419;DHT22;2732;52.092;11.556;2023-01-25T07:37:59;1.20;99.90
5419;DHT22;2732;52.092;11.556;2023-01-25T07:43:00;1.20;99.90
5419;DHT22;2732;52.092;11.556;2023-01-25T07:48:07;1.20;99.90
5419;DHT22;2732;52.092;11.556;2023-01-25T07:53:12;1.20;99.90
5419;DHT22;2732;52.092;11.556;2023-01-25T07:58:13;1.20;99.90
5419;DHT22;2732;52.092;11.556;2023-01-25T08:03:14;1.20;99.90
5419;DHT22;2732;52.092;11.556;2023-01-25T08:08:15;1.30;99.90
5419;DHT22;2732;52.092;11.556;2023-01-25T08:13:15;1.30;99.90
5419;DHT22;2732;52.092;11.556;2023-01-25T08:18:16;1.30;99.90
5419;DHT22;2732;52.092;11.556;2023-01-25T08:23:16;1.30;99.90
5419;DHT22;2732;52.092;11.556;2023-01-25T08:28:19;1.30;99.90
5419;DHT22;2732;52.092;11.556;2023-01-25T08:33:20;1.30;99.90
5419;DHT22;2732;52.092;11.556;2023-01-25T08:38:21;1.30;99.90
5419;DHT22;2732;52.092;11.556;2023-01-25T08:43:21;1.30;99.90
5419;DHT22;2732;52.092;11.556;2023-01-25T08:48:22;1.30;99.90
5419;DHT22;2732;52.092;11.556;2023-01-25T08:53:23;1.30;99.90
5419;DHT22;2732;52.092;11.556;2023-01-25T08:58:23;1.30;99.90
5419;DHT22;2732;52.092;11.556;2023-01-25T09:03:24;1.30;99.90
5419;DHT22;2732;52.092;11.556;2023-01-25T09:08:25;1.30;99.90
5419;DHT22;2732;52.092;11.556;2023-01-25T09:13:25;1.40;99.90
5419;DHT22;2732;52.092;11.556;2023-01-25T09:18:27;1.40;99.90
5419;DHT22;2732;52.092;11.556;2023-01-25T09:23:28;1.40;99.90
5419;DHT22;2732;52.092;11.556;2023-01-25T09:28:30;1.40;99.90
5419;DHT22;2732;52.092;11.556;2023-01-25T09:33:33;1.40;99.90
5419;DHT22;2732;52.092;11.556;2023-01-25T09:38:35;1.40;99.90
5419;DHT22;2732;52.092;11.556;2023-01-25T09:54:20;1.50;99.90
5419;DHT22;2732;52.092;11.556;2023-01-25T09:59:24;1.50;99.90
5419;DHT22;2732;52.092;11.556;2023-01-25T10:04:34;1.50;99.90
5419;DHT22;2732;52.092;11.556;2023-01-25T10:09:54;1.50;99.90
5419;DHT22;2732;52.092;11.556;2023-01-25T10:15:20;1.50;99.90
5419;DHT22;2732;52.092;11.556;2023-01-25T10:20:57;1.60;99.90
5419;DHT22;2732;52.092;11.556;2023-01-25T10:26:15;1.60;99.90
5419;DHT22;2732;52.092;11.556;2023-01-25T10:37:30;1.60;99.90
5419;DHT22;2732;52.092;11.556;2023-01-25T10:42:37;1.60;99.90
5419;DHT22;2732;52.092;11.556;2023-01-25T10:47:44;1.60;99.90
5419;DHT22;2732;52.092;11.556;2023-01-25T10:52:57;1.60;99.90
5419;DHT22;2732;52.092;11.556;2023-01-25T10:57:58;1.60;99.90
5419;DHT22;2732;52.092;11.556;2023-01-25T11:02:58;1.60;99.90
5419;DHT22;2732;52.092;11.556;2023-01-25T11:08:26;1.70;99.90
5419;DHT22;2732;52.092;11.556;2023-01-25T11:13:32;1.70;99.90
5419;DHT22;2732;52.092;11.556;2023-01-25T11:18:34;1.70;99.90
5419;DHT22;2732;52.092;11.556;2023-01-25T11:23:34;1.70;99.90
5419;DHT22;2732;52.092;11.556;2023-01-25T11:28:35;1.80;99.90
5419;DHT22;2732;52.092;11.556;2023-01-25T11:33:36;1.80;99.90
5419;DHT22;2732;52.092;11.556;2023-01-25T11:38:39;1.80;99.90
5419;DHT22;2732;52.092;11.556;2023-01-25T11:49:40;1.80;99.90
5419;DHT22;2732;52.092;11.556;2023-01-25T12:06:41;1.80;99.90
5419;DHT22;2732;52.092;11.556;2023-01-25T12:23:39;1.70;99.90
5419;DHT22;2732;52.092;11.556;2023-01-25T12:28:46;1.70;99.90
5419;DHT22;2732;52.092;11.556;2023-01-25T12:33:56;1.70;99.90
5419;DHT22;2732;52.092;11.556;2023-01-25T12:39:12;1.70;99.90
5419;DHT22;2732;52.092;11.556;2023-01-25T12:44:36;1.70;99.90
5419;DHT22;2732;52.092;11.556;2023-01-25T12:49:54;1.70;99.90
5419;DHT22;2732;52.092;11.556;2023-01-25T12:55:01;1.70;99.90
5419;DHT22;2732;52.092;11.556;2023-01-25T13:00:23;1.70;99.90
5419;DHT22;2732;52.092;11.556;2023-01-25T13:10:54;1.70;99.90
5419;DHT22;2732;52.092;11.556;2023-01-25T13:16:32;1.70;99.90
5419;DHT22;2732;52.092;11.556;2023-01-25T13:26:41;1.70;99.90
5419;DHT22;2732;52.092;11.556;2023-01-25T13:31:47;1.60;99.90
5419;DHT22;2732;52.092;11.556;2023-01-25T13:36:52;1.60;99.90
5419;DHT22;2732;52.092;11.556;2023-01-25T13:47:06;1.60;99.90
5419;DHT22;2732;52.092;11.556;2023-01-25T13:52:15;1.60;99.90
5419;DHT22;2732;52.092;11.556;2023-01-25T13:57:24;1.60;99.90
5419;DHT22;2732;52.092;11.556;2023-01-25T14:02:26;1.60;99.90
5419;DHT22;2732;52.092;11.556;2023-01-25T14:07:35;1.50;99.90
5419;DHT22;2732;52.092;11.556;2023-01-25T14:12:42;1.50;99.90
5419;DHT22;2732;52.092;11.556;2023-01-25T14:17:44;1.50;99.90
5419;DHT22;2732;52.092;11.556;2023-01-25T14:22:49;1.50;99.90
5419;DHT22;2732;52.092;11.556;2023-01-25T14:27:55;1.50;99.90
5419;DHT22;2732;52.092;11.556;2023-01-25T14:32:59;1.50;99.90
5419;DHT22;2732;52.092;11.556;2023-01-25T14:38:16;1.40;99.90
5419;DHT22;2732;52.092;11.556;2023-01-25T14:43:22;1.40;99.90
5419;DHT22;2732;52.092;11.556;2023-01-25T14:48:38;1.40;99.90
5419;DHT22;2732;52.092;11.556;2023-01-25T14:53:44;1.40;99.90
5419;DHT22;2732;52.092;11.556;2023-01-25T14:58:47;1.40;99.90
5419;DHT22;2732;52.092;11.556;2023-01-25T15:03:51;1.40;99.90
5419;DHT22;2732;52.092;11.556;2023-01-25T15:08:52;1.30;99.90
5419;DHT22;2732;52.092;11.556;2023-01-25T15:14:00;1.30;99.90
5419;DHT22;2732;52.092;11.556;2023-01-25T15:19:20;1.30;99.90
5419;DHT22;2732;52.092;11.556;2023-01-25T15:24:22;1.30;99.90
5419;DHT22;2732;52.092;11.556;2023-01-25T15:29:24;1.20;99.90
5419;DHT22;2732;52.092;11.556;2023-01-25T15:34:28;1.20;99.90
5419;DHT22;2732;52.092;11.556;2023-01-25T15:39:31;1.20;99.90
5419;DHT22;2732;52.092;11.556;2023-01-25T15:44:32;1.20;99.90
5419;DHT22;2732;52.092;11.556;2023-01-25T15:49:33;1.20;99.90
5419;DHT22;2732;52.092;11.556;2023-01-25T15:54:38;1.10;99.90
5419;DHT22;2732;52.092;11.556;2023-01-25T15:59:39;1.10;99.90
5419;DHT22;2732;52.092;11.556;2023-01-25T16:04:39;1.10;99.90
5419;DHT22;2732;52.092;11.556;2023-01-25T16:09:41;1.10;99.90
5419;DHT22;2732;52.092;11.556;2023-01-25T16:14:42;1.10;99.90
5419;DHT22;2732;52.092;11.556;2023-01-25T16:19:43;1.10;99.90
5419;DHT22;2732;52.092;11.556;2023-01-25T16:24:46;1.10;99.90
5419;DHT22;2732;52.092;11.556;2023-01-25T16:29:47;1.00;99.90
5419;DHT22;2732;52.092;11.556;2023-01-25T16:34:48;1.00;99.90
5419;DHT22;2732;52.092;11.556;2023-01-25T16:39:49;1.00;99.90
5419;DHT22;2732;52.092;11.556;2023-01-25T16:44:52;1.00;99.90
5419;DHT22;2732;52.092;11.556;2023-01-25T16:49:52;1.00;99.90
5419;DHT22;2732;52.092;11.556;2023-01-25T16:54:55;0.90;99.90
5419;DHT22;2732;52.092;11.556;2023-01-25T17:00:08;0.90;99.90
5419;DHT22;2732;52.092;11.556;2023-01-25T17:05:10;0.90;99.90
5419;DHT22;2732;52.092;11.556;2023-01-25T17:10:11;0.90;99.90
5419;DHT22;2732;52.092;11.556;2023-01-25T17:15:12;0.90;99.90
5419;DHT22;2732;52.092;11.556;2023-01-25T17:20:12;0.90;99.90
5419;DHT22;2732;52.092;11.556;2023-01-25T17:25:13;0.80;99.90
5419;DHT22;2732;52.092;11.556;2023-01-25T17:30:14;0.80;99.90
5419;DHT22;2732;52.092;11.556;2023-01-25T17:35:15;0.80;99.90
5419;DHT22;2732;52.092;11.556;2023-01-25T17:40:16;0.70;99.90
5419;DHT22;2732;52.092;11.556;2023-01-25T17:45:19;0.70;99.90
5419;DHT22;2732;52.092;11.556;2023-01-25T17:50:20;0.70;99.90
5419;DHT22;2732;52.092;11.556;2023-01-25T17:55:21;0.70;99.90
5419;DHT22;2732;52.092;11.556;2023-01-25T18:00:22;0.70;99.90
5419;DHT22;2732;52.092;11.556;2023-01-25T18:05:26;0.70;99.90
5419;DHT22;2732;52.092;11.556;2023-01-25T18:10:27;0.60;99.90
5419;DHT22;2732;52.092;11.556;2023-01-25T18:15:28;0.60;99.90
5419;DHT22;2732;52.092;11.556;2023-01-25T18:20:28;0.60;99.90
5419;DHT22;2732;52.092;11.556;2023-01-25T18:25:32;0.60;99.90
5419;DHT22;2732;52.092;11.556;2023-01-25T18:30:38;0.60;99.90
5419;DHT22;2732;52.092;11.556;2023-01-25T18:35:42;0.60;99.90
5419;DHT22;2732;52.092;11.556;2023-01-25T18:40:47;0.50;99.90
5419;DHT22;2732;52.092;11.556;2023-01-25T18:45:53;0.50;99.90
5419;DHT22;2732;52.092;11.556;2023-01-25T18:51:10;0.50;99.90
5419;DHT22;2732;52.092;11.556;2023-01-25T18:56:14;0.50;99.90
5419;DHT22;2732;52.092;11.556;2023-01-25T19:01:22;0.40;99.90
5419;DHT22;2732;52.092;11.556;2023-01-25T19:06:23;0.40;99.90
5419;DHT22;2732;52.092;11.556;2023-01-25T19:11:24;0.40;99.90
5419;DHT22;2732;52.092;11.556;2023-01-25T19:16:25;0.40;99.90
5419;DHT22;2732;52.092;11.556;2023-01-25T19:21:26;0.40;99.90
5419;DHT22;2732;52.092;11.556;2023-01-25T19:26:27;0.40;99.90
5419;DHT22;2732;52.092;11.556;2023-01-25T19:31:28;0.40;99.90
5419;DHT22;2732;52.092;11.556;2023-01-25T19:36:33;0.40;99.90
5419;DHT22;2732;52.092;11.556;2023-01-25T19:41:38;0.30;99.90
5419;DHT22;2732;52.092;11.556;2023-01-25T19:46:38;0.30;99.90
5419;DHT22;2732;52.092;11.556;2023-01-25T19:51:41;0.30;99.90
5419;DHT22;2732;52.092;11.556;2023-01-25T19:56:46;0.30;99.90
5419;DHT22;2732;52.092;11.556;2023-01-25T20:01:48;0.30;99.90
5419;DHT22;2732;52.092;11.556;2023-01-25T20:06:49;0.30;99.90
5419;DHT22;2732;52.092;11.556;2023-01-25T20:11:50;0.20;99.90
5419;DHT22;2732;52.092;11.556;2023-01-25T20:16:54;0.20;99.90
5419;DHT22;2732;52.092;11.556;2023-01-25T20:21:54;0.20;99.90
5419;DHT22;2732;52.092;11.556;2023-01-25T20:26:55;0.20;99.90
5419;DHT22;2732;52.092;11.556;2023-01-25T20:31:58;0.20;99.90
5419;DHT22;2732;52.092;11.556;2023-01-25T20:36:58;0.20;99.90
5419;DHT22;2732;52.092;11.556;2023-01-25T20:41:59;0.10;99.90
5419;DHT22;2732;52.092;11.556;2023-01-25T20:47:00;0.10;99.90
5419;DHT22;2732;52.092;11.556;2023-01-25T20:52:01;0.10;99.90
5419;DHT22;2732;52.092;11.556;2023-01-25T20:57:02;0.10;99.90
5419;DHT22;2732;52.092;11.556;2023-01-25T21:02:03;0.00;99.90
5419;DHT22;2732;52.092;11.556;2023-01-25T21:07:04;0.00;99.90
5419;DHT22;2732;52.092;11.556;2023-01-25T21:12:04;0.00;99.90
5419;DHT22;2732;52.092;11.556;2023-01-25T21:17:05;0.00;99.90
5419;DHT22;2732;52.092;11.556;2023-01-25T21:22:07;0.00;99.90
5419;DHT22;2732;52.092;11.556;2023-01-25T21:27:08;0.00;99.90
5419;DHT22;2732;52.092;11.556;2023-01-25T21:32:09;0.00;99.90
5419;DHT22;2732;52.092;11.556;2023-01-25T21:37:09;0.00;99.90
5419;DHT22;2732;52.092;11.556;2023-01-25T21:42:10;-0.10;99.90
5419;DHT22;2732;52.092;11.556;2023-01-25T21:47:11;-0.10;99.90
5419;DHT22;2732;52.092;11.556;2023-01-25T21:52:11;-0.10;99.90
5419;DHT22;2732;52.092;11.556;2023-01-25T21:57:12;-0.10;99.90
5419;DHT22;2732;52.092;11.556;2023-01-25T22:02:15;-0.10;99.90
5419;DHT22;2732;52.092;11.556;2023-01-25T22:07:16;-0.10;99.90
5419;DHT22;2732;52.092;11.556;2023-01-25T22:12:17;-0.10;99.90
5419;DHT22;2732;52.092;11.556;2023-01-25T22:17:17;-0.10;99.90
5419;DHT22;2732;52.092;11.556;2023-01-25T22:22:19;-0.10;99.90
5419;DHT22;2732;52.092;11.556;2023-01-25T22:27:30;-0.10;99.90
5419;DHT22;2732;52.092;11.556;2023-01-25T22:32:36;-0.20;99.90
5419;DHT22;2732;52.092;11.556;2023-01-25T22:37:37;-0.20;99.90
5419;DHT22;2732;52.092;11.556;2023-01-25T22:42:40;-0.20;99.90
5419;DHT22;2732;52.092;11.556;2023-01-25T22:47:42;-0.20;99.90
5419;DHT22;2732;52.092;11.556;2023-01-25T22:52:44;-0.20;99.90
5419;DHT22;2732;52.092;11.556;2023-01-25T22:57:44;-0.20;99.90
5419;DHT22;2732;52.092;11.556;2023-01-25T23:02:45;-0.20;99.90
5419;DHT22;2732;52.092;11.556;2023-01-25T23:07:46;-0.10;99.90
5419;DHT22;2732;52.092;11.556;2023-01-25T23:12:46;-0.20;99.90
5419;DHT22;2732;52.092;11.556;2023-01-25T23:17:47;-0.20;99.90
5419;DHT22;2732;52.092;11.556;2023-01-25T23:23:06;-0.20;99.90
5419;DHT22;2732;52.092;11.556;2023-01-25T23:28:07;-0.20;99.90
5419;DHT22;2732;52.092;11.556;2023-01-25T23:33:07;-0.20;99.90
5419;DHT22;2732;52.092;11.556;2023-01-25T23:38:08;-0.20;99.90
5419;DHT22;2732;52.092;11.556;2023-01-25T23:43:14;-0.20;99.90
5419;DHT22;2732;52.092;11.556;2023-01-25T23:48:14;-0.20;99.90
5419;DHT22;2732;52.092;11.556;2023-01-25T23:53:15;-0.20;99.90
5419;DHT22;2732;52.092;11.556;2023-01-25T23:58:16;-0.30;99.90
